Time;durP1;ratioP1;P1;durP2;ratioP2;P2;SDS_P1;SDS_P2;PMS_P1;PMS_P2;Temp;Humidity;BMP_temperature;BMP_pressure;BME280_temperature;BME280_humidity;BME280_pressure;Samples;Min_cycle;Max_cycle;Signal;HPM_P1;HPM_P2
2021/03/21 00:07:25;;;;;;;;;;;0.90;99.90;;;;;;20896481;28;20544;-76
2021/03/21 00:17:26;;;;;;;7.87;4.23;;;0.60;99.90;;;;;;20906470;28;19920;-76
2021/03/21 00:27:27;;;;;;;10.65;4.38;;;0.40;99.90;;;;;;20913009;28;20271;-76
2021/03/21 00:37:27;;;;;;;14.70;4.57;;;0.60;99.90;;;;;;20883167;28;20424;-76
2021/03/21 00:47:28;;;;;;;14.07;5.63;;;0.60;99.90;;;;;;20847492;28;20072;-76
2021/03/21 00:57:29;;;;;;;10.00;5.88;;;0.60;99.90;;;;;;20832230;28;20034;-76
2021/03/21 01:07:30;;;;;;;13.18;5.53;;;0.70;99.90;;;;;;20807499;28;20041;-76
2021/03/21 01:17:31;;;;;;;13.15;6.28;;;0.70;99.90;;;;;;20865695;28;20033;-76
2021/03/21 01:27:31;;;;;;;10.68;4.28;;;0.70;99.90;;;;;;20871774;28;20021;-76
2021/03/21 01:37:32;;;;;;;;;;;0.70;99.90;;;;;;20893426;28;20147;-76
2021/03/21 01:47:37;;;;;;;7.25;4.00;;;0.70;99.90;;;;;;20926869;28;19916;-76
2021/03/21 01:57:38;;;;;;;9.98;3.97;;;0.70;99.90;;;;;;20918819;28;20499;-76
2021/03/21 02:07:39;;;;;;;6.30;3.47;;;0.60;99.90;;;;;;20929757;28;20040;-77
2021/03/21 02:17:49;;;;;;;6.68;3.60;;;0.30;99.90;;;;;;20928825;28;20498;-75
2021/03/21 02:28:43;;;;;;;6.50;3.70;;;0.00;99.90;;;;;;20894470;28;20068;-76
2021/03/21 02:38:58;;;;;;;7.72;3.67;;;-0.10;99.90;;;;;;20849289;28;20068;-76
2021/03/21 02:49:23;;;;;;;8.35;3.70;;;0.10;99.90;;;;;;20898638;28;20380;-75
2021/03/21 02:59:31;;;;;;;8.05;4.03;;;0.10;99.90;;;;;;20917246;28;20037;-76
2021/03/21 03:09:42;;;;;;;10.02;3.78;;;0.30;99.90;;;;;;20916946;28;20025;-76
2021/03/21 03:19:52;;;;;;;8.47;3.50;;;0.30;99.90;;;;;;20914733;28;20470;-77
2021/03/21 03:29:57;;;;;;;8.03;3.83;;;0.30;99.90;;;;;;20914192;28;20829;-76
2021/03/21 03:39:57;;;;;;;9.40;4.05;;;0.40;99.90;;;;;;20896295;28;20146;-77
2021/03/21 03:50:06;;;;;;;7.82;4.15;;;0.40;99.90;;;;;;20915514;28;20052;-76
2021/03/21 04:00:20;;;;;;;8.15;3.75;;;0.20;99.90;;;;;;20894219;28;20029;-76
2021/03/21 04:10:30;;;;;;;7.70;3.30;;;0.20;99.90;;;;;;20894858;28;20028;-76
2021/03/21 04:20:40;;;;;;;4.68;2.88;;;0.20;99.90;;;;;;20925271;28;20087;-77
2021/03/21 04:30:49;;;;;;;6.07;3.93;;;0.40;99.90;;;;;;20889969;28;20489;-76
2021/03/21 04:40:50;;;;;;;7.70;3.08;;;0.50;99.90;;;;;;20908229;28;20454;-77
2021/03/21 04:51:03;;;;;;;6.20;3.17;;;0.20;99.90;;;;;;20882696;28;20052;-76
2021/03/21 05:01:12;;;;;;;7.20;3.33;;;0.20;99.90;;;;;;20890575;28;20037;-76
2021/03/21 05:11:14;;;;;;;6.53;3.63;;;0.20;99.90;;;;;;20881829;28;20029;-76
2021/03/21 05:21:39;;;;;;;7.60;4.05;;;0.00;99.90;;;;;;20905550;28;20103;-75
2021/03/21 05:31:40;;;;;;;7.55;4.05;;;0.20;99.90;;;;;;20914709;28;20040;-76
2021/03/21 05:42:05;;;;;;;6.90;3.70;;;0.40;99.90;;;;;;20922225;28;20033;-76
2021/03/21 05:52:09;;;;;;;8.57;4.60;;;0.50;99.90;;;;;;20913093;28;20439;-76
2021/03/21 06:02:47;;;;;;;10.52;4.82;;;0.40;99.90;;;;;;20902706;28;20041;-76
2021/03/21 06:13:25;;;;;;;9.15;4.03;;;0.50;99.90;;;;;;20888827;28;20499;-75
2021/03/21 06:24:03;;;;;;;9.05;4.68;;;0.70;99.90;;;;;;20918958;28;20525;-76
2021/03/21 06:34:44;;;;;;;7.97;4.82;;;0.70;99.90;;;;;;20871893;28;20055;-76
2021/03/21 06:45:12;;;;;;;10.05;4.78;;;0.70;99.90;;;;;;20918602;28;20040;-76
2021/03/21 06:55:13;;;;;;;7.00;4.20;;;1.00;99.90;;;;;;20920686;28;20399;-76
2021/03/21 07:05:26;;;;;;;;;;;1.30;99.90;;;;;;20896505;28;20040;-76
2021/03/21 07:15:55;;;;;;;7.77;4.47;;;1.30;99.90;;;;;;20904958;28;19909;-77
2021/03/21 07:26:08;;;;;;;10.07;5.95;;;1.50;99.90;;;;;;20860845;28;20041;-75
2021/03/21 07:36:12;;;;;;;10.10;5.32;;;1.60;99.90;;;;;;20872086;28;20017;-75
2021/03/21 07:46:25;;;;;;;10.70;5.28;;;1.50;99.90;;;;;;20858899;28;20583;-76
2021/03/21 07:56:42;;;;;;;12.38;5.45;;;1.30;99.90;;;;;;20906014;28;20092;-76
2021/03/21 08:06:46;;;;;;;10.45;4.57;;;1.70;99.90;;;;;;20894450;28;20123;-76
2021/03/21 08:16:53;;;;;;;9.30;5.00;;;1.80;99.90;;;;;;20910114;28;20029;-77
2021/03/21 08:26:53;;;;;;;26.80;8.95;;;1.80;99.90;;;;;;20892593;28;20029;-76
2021/03/21 08:36:54;;;;;;;;;;;1.80;99.90;;;;;;20875004;28;20542;-76
2021/03/21 08:46:55;;;;;;;7.57;4.28;;;1.90;99.90;;;;;;20907549;28;19947;-76
2021/03/21 08:57:04;;;;;;;;;;;2.00;99.90;;;;;;20908297;28;20029;-77
2021/03/21 09:07:25;;;;;;;8.23;4.05;;;2.20;99.90;;;;;;20891667;28;19931;-77
2021/03/21 09:17:26;;;;;;;9.88;4.80;;;2.30;99.90;;;;;;20914068;28;20033;-76
2021/03/21 09:27:39;;;;;;;8.60;4.30;;;2.00;99.90;;;;;;20882186;28;20040;-76
2021/03/21 09:37:41;;;;;;;10.07;4.50;;;2.20;99.90;;;;;;20788133;23;20042;-75
2021/03/21 09:47:55;;;;;;;7.03;3.92;;;2.50;99.90;;;;;;20722560;28;20075;-76
2021/03/21 09:58:09;;;;;;;9.57;3.90;;;2.70;99.90;;;;;;20704107;28;20104;-72
2021/03/21 10:08:48;;;;;;;6.47;3.45;;;2.50;99.90;;;;;;20731216;28;20042;-76
2021/03/21 10:18:52;;;;;;;7.32;3.45;;;2.90;99.90;;;;;;20736534;28;20042;-72
2021/03/21 10:28:55;;;;;;;8.77;3.88;;;2.60;99.90;;;;;;20735683;28;20057;-73
2021/03/21 10:38:58;;;;;;;6.13;3.50;;;2.70;99.90;;;;;;20716614;28;20145;-73
2021/03/21 10:48:59;;;;;;;8.05;3.95;;;2.80;99.90;;;;;;20712435;28;20049;-73
2021/03/21 10:59:06;;;;;;;9.35;3.95;;;2.90;99.90;;;;;;20734080;28;20488;-74
2021/03/21 11:09:13;;;;;;;9.00;3.72;;;2.90;99.90;;;;;;20707371;28;20050;-75
2021/03/21 11:19:15;;;;;;;7.70;3.78;;;3.00;99.90;;;;;;20725253;28;20034;-75
2021/03/21 11:29:37;;;;;;;6.13;3.53;;;3.10;99.90;;;;;;20722127;28;20036;-74
2021/03/21 11:39:41;;;;;;;;;;;3.20;99.90;;;;;;20730350;28;20092;-74
2021/03/21 11:49:43;;;;;;;9.07;3.63;;;3.20;99.90;;;;;;20728468;28;19928;-75
2021/03/21 12:00:02;;;;;;;7.47;3.67;;;3.30;99.90;;;;;;20727884;28;20038;-73
2021/03/21 12:10:05;;;;;;;;;;;3.40;99.90;;;;;;20704360;28;20042;-75
2021/03/21 12:20:41;;;;;;;9.45;3.67;;;3.30;99.90;;;;;;20699424;28;20016;-74
2021/03/21 12:30:48;;;;;;;8.07;3.47;;;3.40;99.90;;;;;;20667657;28;20045;-74
2021/03/21 12:40:49;;;;;;;10.50;4.35;;;3.80;99.90;;;;;;20706177;28;20034;-74
2021/03/21 12:50:50;;;;;;;9.23;4.10;;;4.30;99.90;;;;;;20691693;28;20646;-74
2021/03/21 13:00:52;;;;;;;8.43;4.40;;;4.50;99.90;;;;;;20709950;28;20402;-74
2021/03/21 13:10:54;;;;;;;7.65;3.80;;;4.50;99.90;;;;;;20714858;28;20296;-74
2021/03/21 13:20:57;;;;;;;6.85;3.17;;;4.30;99.90;;;;;;20688726;28;20148;-74
2021/03/21 13:30:59;;;;;;;7.70;3.15;;;5.00;99.90;;;;;;20706174;28;20034;-75
2021/03/21 13:41:00;;;;;;;7.78;3.60;;;5.20;99.90;;;;;;20724425;28;20069;-75
2021/03/21 13:51:02;;;;;;;8.35;4.45;;;4.80;99.90;;;;;;20743474;28;20041;-73
2021/03/21 14:01:06;;;;;;;6.75;4.20;;;5.00;99.90;;;;;;20723626;28;20459;-73
2021/03/21 14:11:07;;;;;;;8.88;4.45;;;5.10;99.90;;;;;;20735236;28;20032;-75
2021/03/21 14:21:08;;;;;;;9.77;4.37;;;5.50;99.90;;;;;;20735778;28;20037;-73
2021/03/21 14:31:09;;;;;;;7.33;4.03;;;5.90;99.90;;;;;;20816522;28;20037;-73
2021/03/21 14:41:11;;;;;;;10.98;4.82;;;6.50;99.90;;;;;;20755258;28;20133;-73
2021/03/21 14:51:13;;;;;;;10.85;5.75;;;6.10;99.90;;;;;;20698914;28;20048;-73
2021/03/21 15:01:14;;;;;;;11.60;4.90;;;5.80;99.90;;;;;;20730556;28;20042;-75
2021/03/21 15:11:15;;;;;;;8.23;4.97;;;5.70;99.90;;;;;;20712319;28;20113;-74
2021/03/21 15:21:16;;;;;;;12.87;6.50;;;5.50;99.90;;;;;;20714942;28;20048;-75
2021/03/21 15:31:38;;;;;;;10.30;6.33;;;5.50;99.90;;;;;;20768565;23;20048;-76
2021/03/21 15:41:39;;;;;;;11.65;6.18;;;5.40;99.90;;;;;;20891460;28;20046;-76
2021/03/21 15:51:40;;;;;;;9.30;5.90;;;5.20;99.90;;;;;;20884333;28;20025;-75
2021/03/21 16:01:41;;;;;;;10.50;5.20;;;5.40;99.90;;;;;;20827575;28;20303;-76
2021/03/21 16:11:42;;;;;;;10.83;5.30;;;5.30;99.90;;;;;;20790754;28;20460;-76
2021/03/21 16:21:48;;;;;;;7.60;4.43;;;5.40;99.90;;;;;;20812064;28;20434;-76
2021/03/21 16:31:49;;;;;;;8.20;4.78;;;5.50;99.90;;;;;;20799334;28;20499;-76
2021/03/21 16:41:49;;;;;;;7.23;4.50;;;5.40;99.90;;;;;;20770800;28;20311;-76
2021/03/21 16:51:50;;;;;;;7.63;4.70;;;5.30;99.90;;;;;;20805819;28;20033;-76
2021/03/21 17:01:51;;;;;;;4.63;2.73;;;5.40;99.90;;;;;;20787538;28;20049;-76
2021/03/21 17:11:52;;;;;;;6.43;3.87;;;5.20;99.90;;;;;;20787011;28;20377;-76
2021/03/21 17:21:53;;;;;;;6.20;3.57;;;5.20;99.90;;;;;;20844166;28;20033;-76
2021/03/21 17:31:54;;;;;;;12.43;5.20;;;5.10;99.90;;;;;;20887657;28;20147;-77
2021/03/21 17:41:54;;;;;;;6.13;3.70;;;5.00;99.90;;;;;;20886930;28;20098;-78
2021/03/21 17:51:55;;;;;;;11.43;5.37;;;5.00;99.90;;;;;;20884298;28;20037;-78
2021/03/21 18:01:56;;;;;;;12.70;4.90;;;4.80;99.90;;;;;;20858753;28;20480;-77
2021/03/21 18:11:57;;;;;;;11.63;5.63;;;4.70;99.90;;;;;;20900941;28;20123;-77
2021/03/21 18:21:58;;;;;;;8.70;5.37;;;4.60;99.90;;;;;;20884965;28;20128;-77
2021/03/21 18:31:59;;;;;;;13.27;5.83;;;4.60;99.90;;;;;;20892195;28;20044;-77
2021/03/21 18:42:00;;;;;;;23.07;10.17;;;4.60;99.90;;;;;;20981814;28;20055;-78
2021/03/21 18:52:00;;;;;;;189.23;60.17;;;4.50;99.90;;;;;;20981367;28;20039;-77
2021/03/21 19:02:01;;;;;;;15.93;6.97;;;4.40;99.90;;;;;;20979457;28;20033;-78
2021/03/21 19:12:03;;;;;;;9.13;4.95;;;4.40;99.90;;;;;;20961755;28;20514;-78
2021/03/21 19:22:04;;;;;;;11.20;6.18;;;4.30;99.90;;;;;;20936036;28;20063;-78
2021/03/21 19:32:06;;;;;;;18.40;8.90;;;4.30;99.90;;;;;;20893736;28;20041;-79
2021/03/21 19:42:07;;;;;;;11.93;6.28;;;4.30;99.90;;;;;;20893874;28;20295;-78
2021/03/21 19:52:08;;;;;;;14.05;6.93;;;4.20;99.90;;;;;;20892793;28;20067;-78
2021/03/21 20:02:12;;;;;;;15.15;6.90;;;4.10;99.90;;;;;;20828232;28;20028;-78
2021/03/21 20:12:14;;;;;;;14.85;7.18;;;4.00;99.90;;;;;;20824984;28;20109;-79
2021/03/21 20:22:15;;;;;;;10.48;6.15;;;4.00;99.90;;;;;;20833573;28;20056;-77
2021/03/21 20:32:15;;;;;;;13.53;6.27;;;4.00;99.90;;;;;;20817328;28;20033;-78
2021/03/21 20:42:16;;;;;;;14.10;6.50;;;3.90;99.90;;;;;;20833781;28;20036;-78
2021/03/21 20:52:17;;;;;;;10.97;6.30;;;3.90;99.90;;;;;;20831912;28;20030;-77
2021/03/21 21:02:28;;;;;;;12.60;6.97;;;3.90;99.90;;;;;;20806062;28;20516;-78
2021/03/21 21:12:30;;;;;;;10.63;6.03;;;3.80;99.90;;;;;;20821025;28;20654;-77
2021/03/21 21:22:30;;;;;;;14.82;6.57;;;3.80;99.90;;;;;;20821984;28;20057;-78
2021/03/21 21:32:31;;;;;;;13.57;6.80;;;3.80;99.90;;;;;;20858245;23;20063;-77
2021/03/21 21:42:32;;;;;;;13.13;6.10;;;3.80;99.90;;;;;;20865922;28;20035;-77
2021/03/21 21:52:33;;;;;;;12.10;5.93;;;3.80;99.90;;;;;;20864551;28;20056;-78
2021/03/21 22:02:34;;;;;;;12.83;6.87;;;3.70;99.90;;;;;;20894945;28;20047;-77
2021/03/21 22:12:35;;;;;;;15.20;6.70;;;3.70;99.90;;;;;;20891389;28;20060;-77
2021/03/21 22:22:36;;;;;;;11.33;6.07;;;3.70;99.90;;;;;;20894276;28;20025;-77
2021/03/21 22:32:41;;;;;;;16.97;6.90;;;3.70;99.90;;;;;;20912005;28;20055;-77
2021/03/21 22:42:42;;;;;;;10.32;6.22;;;3.50;99.90;;;;;;20906362;28;20120;-77
2021/03/21 22:52:43;;;;;;;15.87;7.20;;;3.60;99.90;;;;;;20917837;28;20069;-76
2021/03/21 23:02:45;;;;;;;15.00;6.93;;;3.60;99.90;;;;;;20922522;28;20079;-76
2021/03/21 23:12:46;;;;;;;12.45;6.97;;;3.50;99.90;;;;;;20916231;28;20384;-77
2021/03/21 23:22:47;;;;;;;13.73;7.53;;;3.50;99.90;;;;;;20918371;28;20056;-76
2021/03/21 23:32:48;;;;;;;15.13;7.28;;;3.40;99.90;;;;;;20898439;28;20111;-75
2021/03/21 23:42:49;;;;;;;24.23;9.90;;;3.30;99.90;;;;;;20905200;28;20398;-76
2021/03/21 23:52:50;;;;;;;16.07;8.17;;;3.20;99.90;;;;;;20922012;28;20036;-76
